Time;durP1;ratioP1;P1;durP2;ratioP2;P2;SDS_P1;SDS_P2;PMS_P1;PMS_P2;Temp;Humidity;BMP_temperature;BMP_pressure;BME280_temperature;BME280_humidity;BME280_pressure;Samples;Min_cycle;Max_cycle;Signal;HPM_P1;HPM_P2
2022/03/08 00:02:16;;;;;;;25.27;10.20;;;;;;;;;;4970508;28;20114;-70
2022/03/08 00:04:42;;;;;;;20.30;9.27;;;;;;;;;;4970931;28;20035;-70
2022/03/08 00:07:08;;;;;;;25.08;10.82;;;;;;;;;;4969097;28;20057;-71
2022/03/08 00:09:35;;;;;;;23.83;10.02;;;;;;;;;;4970024;28;20097;-69
2022/03/08 00:12:01;;;;;;;20.92;6.95;;;;;;;;;;4967642;28;20038;-70
2022/03/08 00:14:26;;;;;;;20.25;9.52;;;;;;;;;;4954608;28;20019;-70
2022/03/08 00:16:52;;;;;;;20.08;6.07;;;;;;;;;;4971627;28;20034;-71
2022/03/08 00:19:19;;;;;;;17.23;7.65;;;;;;;;;;4968742;28;20057;-71
2022/03/08 00:21:45;;;;;;;16.52;9.07;;;;;;;;;;4970064;28;20137;-71
2022/03/08 00:24:12;;;;;;;19.58;8.70;;;;;;;;;;4970065;28;20034;-70
2022/03/08 00:26:38;;;;;;;37.08;9.48;;;;;;;;;;4969629;28;20050;-70
2022/03/08 00:29:04;;;;;;;14.30;7.03;;;;;;;;;;4971393;28;20035;-69
2022/03/08 00:31:30;;;;;;;20.85;8.35;;;;;;;;;;4971395;28;20055;-70
2022/03/08 00:33:57;;;;;;;29.80;10.15;;;;;;;;;;4968165;28;20110;-69
2022/03/08 00:36:23;;;;;;;23.42;7.63;;;;;;;;;;4968425;28;20038;-70
2022/03/08 00:38:49;;;;;;;18.90;8.15;;;;;;;;;;4968332;28;20035;-70
2022/03/08 00:41:16;;;;;;;16.50;9.45;;;1.50;88.00;;;;;;4969676;28;20034;-71
2022/03/08 00:43:42;;;;;;;21.42;9.75;;;;;;;;;;4971930;28;20499;-70
2022/03/08 00:46:07;;;;;;;23.73;9.98;;;0.90;96.40;;;;;;4969112;28;20105;-71
2022/03/08 00:48:33;;;;;;;22.83;9.27;;;1.40;96.40;;;;;;4969509;28;20484;-71
2022/03/08 00:50:59;;;;;;;30.77;7.95;;;;;;;;;;4969266;28;20105;-70
2022/03/08 00:53:25;;;;;;;14.68;5.88;;;;;;;;;;4969498;28;20038;-71
2022/03/08 00:55:51;;;;;;;14.15;7.70;;;;;;;;;;4971318;28;20409;-70
2022/03/08 00:58:17;;;;;;;14.15;7.13;;;;;;;;;;4968382;28;20109;-70
2022/03/08 01:00:43;;;;;;;16.25;6.72;;;;;;;;;;4967393;28;20562;-70
2022/03/08 01:03:09;;;;;;;26.95;9.13;;;;;;;;;;4969281;28;20033;-70
2022/03/08 01:05:35;;;;;;;13.77;5.70;;;1.20;91.80;;;;;;4967747;28;20102;-69
2022/03/08 01:08:01;;;;;;;26.55;9.70;;;;;;;;;;4970784;28;20146;-70
2022/03/08 01:10:28;;;;;;;20.67;8.43;;;1.10;80.30;;;;;;4968579;28;20033;-70
2022/03/08 01:12:54;;;;;;;19.53;9.40;;;;;;;;;;4968929;28;20053;-71
2022/03/08 01:37:25;;;;;;;23.75;7.32;;;0.80;81.40;;;;;;4968439;28;20030;-70
2022/03/08 01:39:51;;;;;;;19.30;9.32;;;;;;;;;;4967415;28;20027;-71
2022/03/08 01:42:20;;;;;;;12.95;6.00;;;0.80;81.10;;;;;;4968784;28;20507;-70
2022/03/08 01:44:46;;;;;;;8.98;6.60;;;;;;;;;;4967609;28;20023;-70
2022/03/08 01:47:13;;;;;;;22.40;9.13;;;;;;;;;;4969655;28;20041;-72
2022/03/08 01:49:39;;;;;;;19.38;7.85;;;;;;;;;;4965865;28;20437;-70
2022/03/08 01:52:06;;;;;;;22.48;9.13;;;;;;;;;;4964950;28;20038;-70
2022/03/08 01:54:32;;;;;;;19.00;7.70;;;;;;;;;;4967538;28;20030;-70
2022/03/08 01:56:58;;;;;;;14.80;7.30;;;;;;;;;;4968917;28;20035;-69
2022/03/08 01:59:24;;;;;;;33.08;9.68;;;;;;;;;;4967955;28;20049;-70
2022/03/08 02:01:50;;;;;;;35.30;11.25;;;;;;;;;;4969724;28;20074;-71
2022/03/08 02:04:16;;;;;;;20.10;11.27;;;;;;;;;;4968319;28;20031;-71
2022/03/08 02:06:44;;;;;;;12.60;7.82;;;;;;;;;;4967102;28;20504;-70
2022/03/08 02:09:10;;;;;;;16.65;9.43;;;;;;;;;;4968819;28;20050;-71
2022/03/08 02:11:37;;;;;;;18.40;8.80;;;;;;;;;;4972179;28;20487;-70
2022/03/08 02:14:03;;;;;;;23.45;6.20;;;;;;;;;;4973984;28;20118;-70
2022/03/08 02:16:29;;;;;;;13.70;6.50;;;;;;;;;;4972986;28;20034;-71
2022/03/08 02:18:55;;;;;;;29.27;8.55;;;;;;;;;;4972460;28;20389;-70
2022/03/08 02:21:21;;;;;;;24.50;8.15;;;;;;;;;;4970677;28;20038;-70
2022/03/08 02:23:47;;;;;;;12.90;7.63;;;;;;;;;;4969327;28;20031;-70
2022/03/08 02:26:13;;;;;;;19.40;7.75;;;;;;;;;;4972687;28;20116;-70
2022/03/08 02:28:40;;;;;;;11.55;6.50;;;;;;;;;;4972777;28;20031;-71
2022/03/08 02:31:06;;;;;;;22.17;9.60;;;;;;;;;;4971550;28;20031;-70
2022/03/08 02:33:33;;;;;;;14.75;7.70;;;;;;;;;;4971999;28;20523;-70
2022/03/08 02:35:59;;;;;;;15.27;6.10;;;;;;;;;;4970888;28;20018;-70
2022/03/08 02:38:25;;;;;;;21.80;8.63;;;;;;;;;;4972049;28;20079;-70
2022/03/08 02:40:51;;;;;;;14.02;6.70;;;;;;;;;;4973843;28;20416;-70
2022/03/08 02:43:18;;;;;;;22.42;6.68;;;0.20;82.30;;;;;;4970553;28;20113;-70
2022/03/08 02:45:44;;;;;;;12.15;7.93;;;;;;;;;;4955435;28;20035;-70
2022/03/08 02:48:11;;;;;;;13.45;6.20;;;;;;;;;;4970012;28;20528;-70
2022/03/08 02:50:37;;;;;;;12.07;6.03;;;;;;;;;;4971914;28;20026;-70
2022/03/08 02:53:03;;;;;;;13.55;6.72;;;;;;;;;;4973076;28;20030;-70
2022/03/08 02:55:30;;;;;;;13.52;7.60;;;;;;;;;;4971590;28;20242;-70
2022/03/08 02:57:57;;;;;;;17.90;8.30;;;;;;;;;;4970597;28;20129;-70
2022/03/08 03:00:25;;;;;;;15.38;8.18;;;-0.10;83.10;;;;;;4970687;28;20026;-70
2022/03/08 03:02:51;;;;;;;31.42;8.15;;;-0.20;83.90;;;;;;4969763;28;20051;-70
2022/03/08 03:05:17;;;;;;;22.58;7.07;;;-0.50;99.20;;;;;;4971803;28;20407;-70
2022/03/08 03:07:43;;;;;;;36.42;7.93;;;0.00;95.40;;;;;;4973425;28;20130;-70
2022/03/08 03:10:13;;;;;;;13.70;7.38;;;-0.20;85.10;;;;;;4955143;28;20105;-70
2022/03/08 03:12:39;;;;;;;25.85;8.35;;;;;;;;;;4948359;28;20057;-71
2022/03/08 03:15:06;;;;;;;14.25;7.28;;;;;;;;;;4971001;28;20065;-70
2022/03/08 03:17:32;;;;;;;19.67;7.75;;;;;;;;;;4971549;28;20027;-71
2022/03/08 03:19:58;;;;;;;16.50;9.20;;;;;;;;;;4955671;28;20050;-71
2022/03/08 03:22:24;;;;;;;27.23;6.15;;;;;;;;;;4970429;28;20031;-70
2022/03/08 03:24:50;;;;;;;12.45;6.78;;;;;;;;;;4971075;28;20030;-70
2022/03/08 03:27:16;;;;;;;10.18;5.57;;;;;;;;;;4970953;28;20129;-70
2022/03/08 03:29:42;;;;;;;15.55;8.68;;;;;;;;;;4970910;28;20031;-72
2022/03/08 03:32:08;;;;;;;14.30;6.88;;;;;;;;;;4971579;28;20033;-70
2022/03/08 03:34:34;;;;;;;22.10;9.10;;;;;;;;;;4971028;28;20038;-70
2022/03/08 03:37:00;;;;;;;12.35;7.22;;;;;;;;;;4969469;28;20058;-70
2022/03/08 03:39:26;;;;;;;6.32;5.72;;;;;;;;;;4969728;28;20026;-70
2022/03/08 03:41:52;;;;;;;12.52;7.00;;;;;;;;;;4969198;28;20027;-70
2022/03/08 03:44:18;;;;;;;11.60;6.45;;;;;;;;;;4971021;28;20050;-69
2022/03/08 03:46:44;;;;;;;13.43;6.18;;;;;;;;;;4972356;28;20511;-69
2022/03/08 03:49:10;;;;;;;11.32;5.60;;;;;;;;;;4968843;28;20076;-70
2022/03/08 03:51:36;;;;;;;17.73;8.82;;;;;;;;;;4968828;28;20725;-70
2022/03/08 03:54:03;;;;;;;12.00;8.23;;;;;;;;;;4970620;28;20133;-71
2022/03/08 03:56:29;;;;;;;26.60;10.10;;;;;;;;;;4969593;28;20019;-70
2022/03/08 03:58:55;;;;;;;18.65;7.93;;;;;;;;;;4968525;28;20385;-70
2022/03/08 04:01:21;;;;;;;28.35;8.88;;;;;;;;;;4970209;28;20026;-70
2022/03/08 04:03:47;;;;;;;14.25;5.15;;;;;;;;;;4970282;28;20031;-70
2022/03/08 04:06:13;;;;;;;30.40;9.65;;;;;;;;;;4969043;28;20027;-71
2022/03/08 04:08:39;;;;;;;12.80;9.15;;;;;;;;;;4970342;28;20411;-70
2022/03/08 04:11:05;;;;;;;21.70;6.85;;;;;;;;;;4971705;28;20038;-70
2022/03/08 04:13:31;;;;;;;9.13;7.22;;;;;;;;;;4968631;28;20567;-70
2022/03/08 04:15:57;;;;;;;16.50;8.00;;;;;;;;;;4970328;28;20118;-69
2022/03/08 04:18:23;;;;;;;17.17;7.25;;;;;;;;;;4970265;28;20423;-70
2022/03/08 04:20:49;;;;;;;13.55;8.50;;;;;;;;;;4970301;28;20491;-70
2022/03/08 04:23:15;;;;;;;18.65;6.20;;;;;;;;;;4970002;28;20026;-70
2022/03/08 04:25:41;;;;;;;9.60;6.00;;;;;;;;;;4971853;28;20082;-70
2022/03/08 04:28:07;;;;;;;13.15;7.75;;;;;;;;;;4969877;28;20031;-69
2022/03/08 04:30:33;;;;;;;16.65;8.13;;;-1.10;98.50;;;;;;4969689;28;20042;-69
2022/03/08 04:32:59;;;;;;;13.48;5.47;;;;;;;;;;4969719;28;20031;-70
2022/03/08 04:35:25;;;;;;;18.27;7.72;;;-1.00;92.00;;;;;;4969880;28;20066;-70
2022/03/08 04:37:51;;;;;;;14.55;7.57;;;;;;;;;;4950496;28;20048;-70
2022/03/08 04:40:17;;;;;;;12.38;8.65;;;;;;;;;;4967662;28;20086;-70
2022/03/08 04:42:43;;;;;;;17.00;7.78;;;;;;;;;;4967821;28;20034;-70
2022/03/08 04:45:10;;;;;;;16.90;6.20;;;;;;;;;;4968104;28;20526;-70
2022/03/08 04:47:37;;;;;;;20.83;7.25;;;;;;;;;;4968689;28;20274;-70
2022/03/08 04:50:07;;;;;;;8.82;7.55;;;;;;;;;;4970701;28;20050;-71
2022/03/08 04:52:33;;;;;;;13.18;4.90;;;;;;;;;;4970830;28;20042;-70
2022/03/08 04:54:59;;;;;;;13.90;6.50;;;;;;;;;;4969208;28;20026;-70
2022/03/08 04:57:25;;;;;;;6.78;6.07;;;;;;;;;;4969289;28;20110;-70
2022/03/08 04:59:51;;;;;;;7.60;4.63;;;;;;;;;;4968921;28;20037;-70
2022/03/08 05:02:17;;;;;;;16.30;6.95;;;;;;;;;;4968951;28;20031;-69
2022/03/08 05:04:43;;;;;;;18.00;7.25;;;;;;;;;;4969523;28;20612;-71
2022/03/08 05:07:09;;;;;;;15.45;6.00;;;;;;;;;;4966293;28;20055;-70
2022/03/08 05:09:35;;;;;;;10.77;4.57;;;;;;;;;;4968709;28;20095;-70
2022/03/08 05:12:01;;;;;;;17.90;6.82;;;;;;;;;;4967584;28;20034;-70
2022/03/08 05:14:27;;;;;;;16.88;5.00;;;;;;;;;;4935689;28;20641;-70
2022/03/08 05:16:53;;;;;;;9.55;6.13;;;;;;;;;;4970589;28;20086;-70
2022/03/08 05:19:19;;;;;;;9.75;6.95;;;;;;;;;;4967905;28;20075;-70
2022/03/08 05:21:45;;;;;;;12.00;6.60;;;;;;;;;;4968776;28;20045;-70
2022/03/08 05:24:11;;;;;;;11.07;5.50;;;;;;;;;;4967229;28;20110;-70
2022/03/08 05:26:38;;;;;;;28.88;7.53;;;;;;;;;;4968892;28;20031;-70
2022/03/08 05:29:07;;;;;;;14.75;6.55;;;-1.30;86.90;;;;;;4970516;28;20493;-70
2022/03/08 05:31:33;;;;;;;15.63;4.15;;;;;;;;;;4969679;28;20093;-70
2022/03/08 05:34:00;;;;;;;11.68;6.65;;;;;;;;;;4968412;28;20045;-70
2022/03/08 05:36:26;;;;;;;7.50;5.22;;;;;;;;;;4968702;28;20042;-71
2022/03/08 05:38:52;;;;;;;6.72;5.10;;;;;;;;;;4968697;28;20520;-70
2022/03/08 05:41:18;;;;;;;14.63;8.65;;;;;;;;;;4950762;28;20027;-70
2022/03/08 05:43:44;;;;;;;7.25;4.65;;;;;;;;;;4970478;28;20127;-69
2022/03/08 05:46:10;;;;;;;7.20;4.03;;;;;;;;;;4968133;28;20050;-70
2022/03/08 05:48:36;;;;;;;18.98;5.88;;;;;;;;;;4968417;28;20050;-70
2022/03/08 05:51:03;;;;;;;15.32;5.80;;;;;;;;;;4968506;28;20475;-70
2022/03/08 05:53:29;;;;;;;13.77;5.22;;;;;;;;;;4966930;28;20030;-70
2022/03/08 05:55:55;;;;;;;13.65;4.68;;;-1.40;94.90;;;;;;4966267;28;20082;-70
2022/03/08 05:58:21;;;;;;;16.33;5.68;;;;;;;;;;4968159;28;20499;-70
2022/03/08 06:00:47;;;;;;;9.15;5.28;;;;;;;;;;4968063;28;20476;-70
2022/03/08 06:03:14;;;;;;;5.85;3.58;;;;;;;;;;4967633;28;20034;-70
2022/03/08 06:05:40;;;;;;;11.20;5.70;;;;;;;;;;4967339;28;20063;-70
2022/03/08 06:08:06;;;;;;;12.05;6.28;;;;;;;;;;4963455;28;20074;-70
2022/03/08 06:10:32;;;;;;;9.48;7.13;;;;;;;;;;4968481;28;20038;-70
2022/03/08 06:12:58;;;;;;;11.60;5.28;;;;;;;;;;4959420;28;20035;-70
2022/03/08 06:15:24;;;;;;;7.22;5.60;;;;;;;;;;4955942;28;20042;-71
2022/03/08 06:17:50;;;;;;;17.27;9.07;;;;;;;;;;4955392;28;20747;-70
2022/03/08 06:20:17;;;;;;;12.68;4.32;;;;;;;;;;4959929;28;20038;-70
2022/03/08 06:22:42;;;;;;;29.58;7.65;;;;;;;;;;4953803;28;20031;-70
2022/03/08 06:25:09;;;;;;;20.65;7.45;;;;;;;;;;4959266;28;20094;-70
2022/03/08 06:27:35;;;;;;;20.25;9.60;;;;;;;;;;4955329;28;20043;-69
2022/03/08 06:30:01;;;;;;;12.32;7.20;;;;;;;;;;4952751;28;20031;-68
2022/03/08 06:32:28;;;;;;;11.52;6.80;;;;;;;;;;4964946;28;20400;-68
2022/03/08 06:34:53;;;;;;;24.38;7.43;;;;;;;;;;4950239;28;20023;-68
2022/03/08 06:37:20;;;;;;;13.10;4.05;;;;;;;;;;4956990;28;20725;-68
2022/03/08 06:39:46;;;;;;;12.05;7.40;;;;;;;;;;4960126;28;20042;-67
2022/03/08 06:42:12;;;;;;;19.08;6.57;;;;;;;;;;4961091;28;20039;-69
2022/03/08 06:44:39;;;;;;;12.15;8.13;;;;;;;;;;4959456;28;20042;-68
2022/03/08 06:47:08;;;;;;;19.42;8.25;;;;;;;;;;4961827;28;20499;-71
2022/03/08 06:49:34;;;;;;;21.10;7.35;;;;;;;;;;4958922;28;20019;-71
2022/03/08 06:52:01;;;;;;;10.98;6.15;;;;;;;;;;4955967;28;20035;-70
2022/03/08 06:54:27;;;;;;;14.18;8.43;;;;;;;;;;4953031;28;20027;-70
2022/03/08 06:56:53;;;;;;;26.35;8.23;;;;;;;;;;4954290;28;20389;-68
2022/03/08 06:59:19;;;;;;;20.02;11.25;;;;;;;;;;4970257;28;20031;-68
2022/03/08 07:01:45;;;;;;;14.10;6.10;;;;;;;;;;4970388;28;20030;-68
2022/03/08 07:04:11;;;;;;;10.77;5.68;;;;;;;;;;4968160;28;20037;-68
2022/03/08 07:06:37;;;;;;;15.32;8.80;;;;;;;;;;4968996;28;20031;-69
2022/03/08 07:09:04;;;;;;;33.65;12.32;;;;;;;;;;4953121;28;20894;-68
2022/03/08 07:11:31;;;;;;;20.73;9.25;;;;;;;;;;4968011;28;20320;-68
2022/03/08 07:13:57;;;;;;;22.27;7.93;;;;;;;;;;4971711;28;20041;-68
2022/03/08 07:16:23;;;;;;;24.67;9.20;;;6.10;68.80;;;;;;4969389;28;20408;-68
2022/03/08 07:18:49;;;;;;;28.77;10.40;;;;;;;;;;4967551;28;20023;-69
2022/03/08 07:21:15;;;;;;;28.67;10.82;;;;;;;;;;4965946;28;20555;-69
2022/03/08 07:23:41;;;;;;;32.03;14.40;;;;;;;;;;4965936;28;20031;-74
2022/03/08 07:26:09;;;;;;;28.40;11.23;;;;;;;;;;4969280;28;20054;-70
2022/03/08 07:28:35;;;;;;;27.80;11.43;;;;;;;;;;4971338;28;20034;-74
2022/03/08 07:31:01;;;;;;;34.42;13.18;;;;;;;;;;4967448;28;20022;-72
2022/03/08 07:33:27;;;;;;;36.30;14.07;;;;;;;;;;4965207;28;20043;-71
2022/03/08 07:35:53;;;;;;;25.45;12.23;;;;;;;;;;4966133;28;20050;-70
2022/03/08 07:38:19;;;;;;;49.05;19.50;;;;;;;;;;4967714;28;20048;-70
2022/03/08 07:40:45;;;;;;;32.28;13.63;;;;;;;;;;4955985;28;20485;-70
2022/03/08 07:43:11;;;;;;;33.38;16.60;;;;;;;;;;4970357;28;20157;-70
2022/03/08 07:45:37;;;;;;;34.88;13.60;;;;;;;;;;4969874;28;20110;-71
2022/03/08 07:48:05;;;;;;;30.10;12.93;;;;;;;;;;4965783;28;20034;-71
2022/03/08 07:50:31;;;;;;;31.80;12.43;;;;;;;;;;4968482;28;20407;-70
2022/03/08 07:52:59;;;;;;;29.65;14.50;;;15.00;43.70;;;;;;4953985;28;20038;-71
2022/03/08 07:55:26;;;;;;;34.47;14.13;;;;;;;;;;4970070;28;20054;-71
2022/03/08 07:57:52;;;;;;;31.58;15.10;;;;;;;;;;4970205;28;20123;-70
2022/03/08 08:00:18;;;;;;;46.85;19.30;;;16.20;52.60;;;;;;4969847;28;20055;-71
2022/03/08 08:02:43;;;;;;;35.00;17.98;;;16.90;51.50;;;;;;4969778;28;20062;-70
2022/03/08 08:05:10;;;;;;;30.45;19.35;;;;;;;;;;4969910;28;20093;-76
2022/03/08 08:07:36;;;;;;;32.08;18.17;;;;;;;;;;4950764;28;20121;-70
2022/03/08 08:10:02;;;;;;;38.95;19.10;;;;;;;;;;4960677;28;20034;-71
2022/03/08 08:12:27;;;;;;;43.92;19.13;;;19.30;47.80;;;;;;4965647;28;20034;-71
2022/03/08 08:14:53;;;;;;;38.88;19.38;;;;;;;;;;4948011;28;20023;-71
2022/03/08 08:17:19;;;;;;;48.72;20.40;;;;;;;;;;4934738;28;20035;-71
2022/03/08 08:19:45;;;;;;;30.60;16.00;;;;;;;;;;4965186;28;20031;-71
2022/03/08 08:22:11;;;;;;;39.25;16.98;;;;;;;;;;4966894;28;20101;-71
2022/03/08 08:24:37;;;;;;;31.08;15.18;;;;;;;;;;4967595;28;20118;-72
2022/03/08 08:27:03;;;;;;;31.15;14.93;;;20.80;46.70;;;;;;4967855;28;20110;-72
2022/03/08 08:29:30;;;;;;;31.23;15.07;;;;;;;;;;4960353;28;20118;-73
2022/03/08 08:31:56;;;;;;;30.52;15.20;;;;;;;;;;4969878;28;20050;-72
2022/03/08 08:34:22;;;;;;;28.67;13.77;;;;;;;;;;4963901;28;20488;-72
2022/03/08 08:36:48;;;;;;;23.80;12.93;;;;;;;;;;4962248;28;20114;-73
2022/03/08 08:39:14;;;;;;;24.75;12.52;;;;;;;;;;4959122;28;20027;-73
2022/03/08 08:41:43;;;;;;;31.30;14.75;;;;;;;;;;4966892;28;20045;-73
2022/03/08 08:44:10;;;;;;;24.92;12.85;;;;;;;;;;4955873;28;20023;-73
2022/03/08 08:46:36;;;;;;;19.23;11.40;;;;;;;;;;4961335;28;20039;-73
2022/03/08 08:49:02;;;;;;;29.83;13.95;;;;;;;;;;4959269;28;20455;-72
2022/03/08 08:51:28;;;;;;;24.17;11.80;;;;;;;;;;4948282;28;20113;-73
2022/03/08 08:53:54;;;;;;;23.42;11.40;;;;;;;;;;4958129;28;20034;-73
2022/03/08 08:56:20;;;;;;;21.20;11.48;;;;;;;;;;4948631;28;20085;-72
2022/03/08 08:58:46;;;;;;;22.52;10.43;;;;;;;;;;4956849;28;20046;-73
2022/03/08 09:01:15;;;;;;;21.50;10.55;;;;;;;;;;4967093;28;20073;-72
2022/03/08 09:03:41;;;;;;;21.60;10.50;;;;;;;;;;4964933;28;20122;-72
2022/03/08 09:06:07;;;;;;;30.25;10.75;;;;;;;;;;4963403;28;20045;-72
2022/03/08 09:08:33;;;;;;;22.45;10.52;;;;;;;;;;4954087;28;20039;-72
2022/03/08 09:10:59;;;;;;;24.70;10.32;;;;;;;;;;4968105;28;20111;-74
2022/03/08 09:13:25;;;;;;;23.70;12.13;;;;;;;;;;4957189;28;20032;-73
2022/03/08 09:15:52;;;;;;;21.20;11.90;;;;;;;;;;4958886;28;20019;-73
2022/03/08 09:18:18;;;;;;;26.58;11.02;;;;;;;;;;4960643;28;20093;-73
2022/03/08 09:20:44;;;;;;;22.53;8.70;;;;;;;;;;4964238;28;20089;-73
2022/03/08 09:23:11;;;;;;;26.92;11.85;;;;;;;;;;4967288;28;20041;-73
2022/03/08 09:25:37;;;;;;;18.42;10.23;;;21.20;27.60;;;;;;4965912;28;20200;-72
2022/03/08 09:28:05;;;;;;;23.73;11.27;;;;;;;;;;4958621;28;20037;-72
2022/03/08 09:30:31;;;;;;;21.33;10.75;;;;;;;;;;4962691;28;20031;-72
2022/03/08 09:32:58;;;;;;;21.23;10.90;;;;;;;;;;4952022;28;20090;-72
2022/03/08 09:35:25;;;;;;;23.10;11.43;;;;;;;;;;4948497;28;20421;-72
2022/03/08 09:37:51;;;;;;;23.92;10.07;;;;;;;;;;4963188;28;20047;-71
2022/03/08 09:40:17;;;;;;;25.30;10.38;;;;;;;;;;4962899;28;20041;-71
2022/03/08 09:42:43;;;;;;;20.42;9.95;;;;;;;;;;4963082;28;20022;-71
2022/03/08 09:45:10;;;;;;;21.10;9.23;;;;;;;;;;4965307;28;20057;-71
2022/03/08 09:47:36;;;;;;;25.08;9.82;;;;;;;;;;4962870;28;20078;-73
2022/03/08 09:50:02;;;;;;;18.00;10.50;;;;;;;;;;4964646;28;20039;-73
2022/03/08 09:52:28;;;;;;;20.30;10.05;;;;;;;;;;4962874;28;20550;-72
2022/03/08 09:54:54;;;;;;;21.73;9.68;;;;;;;;;;4961713;28;20042;-73
2022/03/08 09:57:22;;;;;;;19.73;8.45;;;;;;;;;;4947192;28;20030;-73
2022/03/08 09:59:49;;;;;;;28.63;10.38;;;;;;;;;;4959117;28;20130;-70
2022/03/08 10:02:15;;;;;;;28.60;10.43;;;;;;;;;;4965759;28;20031;-72
2022/03/08 10:04:41;;;;;;;25.47;11.00;;;21.50;43.10;;;;;;4951343;28;20038;-71
2022/03/08 10:07:11;;;;;;;18.63;9.30;;;;;;;;;;4957093;28;20043;-72
2022/03/08 10:09:37;;;;;;;25.13;9.73;;;;;;;;;;4955764;28;20043;-71
2022/03/08 10:12:13;;;;;;;19.08;9.77;;;;;;;;;;4966186;28;20027;-71
2022/03/08 10:14:39;;;;;;;25.25;9.95;;;;;;;;;;4952372;28;20035;-70
2022/03/08 10:17:06;;;;;;;24.15;12.20;;;;;;;;;;4965751;28;20604;-74
2022/03/08 10:19:43;;;;;;;23.70;10.50;;;;;;;;;;4962139;28;20469;-74
2022/03/08 10:22:23;;;;;;;21.00;10.18;;;;;;;;;;4963777;28;20085;-73
2022/03/08 10:24:49;;;;;;;17.15;9.18;;;;;;;;;;4961246;28;20031;-73
2022/03/08 10:27:16;;;;;;;23.13;10.50;;;;;;;;;;4962500;28;20043;-73
2022/03/08 10:29:43;;;;;;;20.90;10.20;;;;;;;;;;4960050;28;20015;-74
2022/03/08 10:32:19;;;;;;;21.42;9.50;;;;;;;;;;4968257;28;20081;-74
2022/03/08 10:34:47;;;;;;;23.88;10.43;;;;;;;;;;4959376;28;20281;-71
2022/03/08 10:37:17;;;;;;;25.88;9.90;;;;;;;;;;4959346;28;20552;-71
2022/03/08 10:39:57;;;;;;;21.80;10.15;;;;;;;;;;4958606;28;20036;-71
2022/03/08 10:42:24;;;;;;;26.00;10.05;;;;;;;;;;4962955;28;20506;-70
2022/03/08 10:44:50;;;;;;;;;;;;;;;;;;4970094;28;20120;-71
2022/03/08 10:47:17;;;;;;;16.90;9.18;;;;;;;;;;4966808;28;20592;-72
2022/03/08 10:49:49;;;;;;;20.20;9.95;;;;;;;;;;4967107;28;20035;-71
2022/03/08 10:52:15;;;;;;;25.85;12.73;;;19.80;31.60;;;;;;4968572;28;20027;-71
2022/03/08 10:54:41;;;;;;;22.17;10.00;;;;;;;;;;4968859;28;20027;-71
2022/03/08 10:57:08;;;;;;;24.17;10.57;;;;;;;;;;4951025;28;20512;-71
2022/03/08 10:59:34;;;;;;;;;;;;;;;;;;4964691;28;20034;-71
2022/03/08 11:02:21;;;;;;;21.27;10.13;;;;;;;;;;4965548;28;19917;-71
2022/03/08 11:04:47;;;;;;;22.85;9.93;;;;;;;;;;4956943;28;20043;-71
2022/03/08 11:07:13;;;;;;;17.40;8.75;;;20.70;29.80;;;;;;4965274;28;20416;-71
2022/03/08 11:09:40;;;;;;;17.75;9.02;;;;;;;;;;4943865;28;20058;-70
2022/03/08 11:12:06;;;;;;;15.18;8.73;;;;;;;;;;4956242;28;20512;-71
2022/03/08 11:14:32;;;;;;;16.65;8.70;;;;;;;;;;4969822;28;20516;-71
2022/03/08 11:17:00;;;;;;;18.27;8.40;;;;;;;;;;4969538;28;20035;-71
2022/03/08 11:19:29;;;;;;;19.48;9.68;;;;;;;;;;4964174;28;20058;-70
2022/03/08 11:21:57;;;;;;;19.25;9.23;;;;;;;;;;4967700;28;20030;-71
2022/03/08 11:24:23;;;;;;;15.60;6.53;;;;;;;;;;4959291;28;20050;-70
2022/03/08 11:26:50;;;;;;;17.02;8.05;;;;;;;;;;4955249;28;20097;-71
2022/03/08 11:29:16;;;;;;;;;;;;;;;;;;4963264;28;20027;-70
2022/03/08 11:31:44;;;;;;;17.15;7.28;;;;;;;;;;4960146;28;19913;-70
2022/03/08 11:34:27;;;;;;;18.58;8.73;;;;;;;;;;4951874;28;20043;-71
2022/03/08 11:37:17;;;;;;;21.50;9.60;;;;;;;;;;4968394;28;20034;-71
2022/03/08 11:39:43;;;;;;;20.40;9.82;;;;;;;;;;4948727;28;20412;-71
2022/03/08 11:42:18;;;;;;;19.77;9.35;;;;;;;;;;4963776;28;20787;-71
2022/03/08 11:44:56;;;;;;;15.13;6.65;;;;;;;;;;4968461;28;20030;-71
2022/03/08 11:47:22;;;;;;;16.80;7.05;;;;;;;;;;4957039;28;20422;-74
2022/03/08 11:49:53;;;;;;;16.10;7.32;;;;;;;;;;4966277;28;20117;-73
2022/03/08 11:52:26;;;;;;;14.88;7.45;;;;;;;;;;4943818;28;20035;-73
2022/03/08 11:54:58;;;;;;;29.63;10.45;;;;;;;;;;4962831;28;20103;-72
2022/03/08 11:57:42;;;;;;;22.20;8.70;;;;;;;;;;4957721;28;20039;-71
2022/03/08 12:00:18;;;;;;;18.90;8.30;;;;;;;;;;4966056;28;20019;-71
2022/03/08 12:02:48;;;;;;;16.48;8.38;;;;;;;;;;4960452;28;20516;-73
2022/03/08 12:05:56;;;;;;;14.50;6.97;;;18.70;31.60;;;;;;4954073;28;20098;-72
2022/03/08 12:08:23;;;;;;;22.55;10.23;;;;;;;;;;4953294;28;20042;-74
2022/03/08 12:10:52;;;;;;;22.43;7.47;;;;;;;;;;4956829;28;20114;-74
2022/03/08 12:13:30;;;;;;;17.00;9.15;;;17.10;33.60;;;;;;4965647;28;20536;-72
2022/03/08 12:16:08;;;;;;;17.75;7.95;;;;;;;;;;4961643;28;20496;-74
2022/03/08 12:18:54;;;;;;;15.45;7.63;;;;;;;;;;4957244;28;20800;-73
2022/03/08 12:21:20;;;;;;;28.07;8.60;;;;;;;;;;4968177;28;20027;-74
2022/03/08 12:23:52;;;;;;;19.33;9.15;;;;;;;;;;4966582;28;20033;-74
2022/03/08 12:26:29;;;;;;;18.60;8.75;;;;;;;;;;4968403;28;20046;-74
2022/03/08 12:29:14;;;;;;;16.17;7.30;;;;;;;;;;4961222;28;20074;-73
2022/03/08 12:31:59;;;;;;;21.42;7.50;;;;;;;;;;4960162;28;20039;-71
2022/03/08 12:34:42;;;;;;;21.60;8.68;;;;;;;;;;4965788;28;20062;-72
2022/03/08 12:37:08;;;;;;;13.05;7.93;;;;;;;;;;4962837;28;20609;-72
2022/03/08 12:39:45;;;;;;;14.98;7.90;;;16.50;37.50;;;;;;4961232;28;20034;-72
2022/03/08 12:42:29;;;;;;;23.10;7.60;;;;;;;;;;4963396;28;20117;-72
2022/03/08 12:44:57;;;;;;;18.60;6.88;;;;;;;;;;4964979;28;20035;-72
2022/03/08 12:47:25;;;;;;;15.00;6.55;;;;;;;;;;4964497;28;20051;-71
2022/03/08 12:49:51;;;;;;;14.10;5.60;;;;;;;;;;4964649;28;20381;-71
2022/03/08 12:52:17;;;;;;;17.80;7.10;;;;;;;;;;4960054;28;20039;-74
2022/03/08 12:54:44;;;;;;;12.20;5.53;;;;;;;;;;4958365;28;20022;-73
2022/03/08 12:57:11;;;;;;;14.02;6.00;;;;;;;;;;4967255;28;20560;-73
2022/03/08 12:59:49;;;;;;;13.93;5.93;;;;;;;;;;4961084;28;20150;-73
2022/03/08 13:02:16;;;;;;;9.95;4.85;;;15.00;40.80;;;;;;4953068;28;20148;-73
2022/03/08 13:04:43;;;;;;;10.73;4.97;;;;;;;;;;4959981;28;20038;-72
2022/03/08 13:07:10;;;;;;;14.32;5.72;;;;;;;;;;4962328;28;20034;-75
2022/03/08 13:09:56;;;;;;;7.55;4.13;;;;;;;;;;4959427;28;20043;-73
2022/03/08 13:12:28;;;;;;;8.23;4.30;;;15.00;41.40;;;;;;4964372;28;20026;-72
2022/03/08 13:15:07;;;;;;;13.23;5.40;;;;;;;;;;4966150;28;20023;-73
2022/03/08 13:17:33;;;;;;;9.63;4.65;;;;;;;;;;4950502;28;20037;-72
2022/03/08 13:20:00;;;;;;;11.82;4.50;;;;;;;;;;4963166;28;20327;-73
2022/03/08 13:22:26;;;;;;;5.68;2.95;;;;;;;;;;4949963;28;20073;-73
2022/03/08 13:25:08;;;;;;;8.82;4.80;;;;;;;;;;4961757;28;20031;-73
2022/03/08 13:27:49;;;;;;;8.70;5.40;;;;;;;;;;4963451;28;20821;-74
2022/03/08 13:30:19;;;;;;;11.73;4.90;;;;;;;;;;4961923;28;20031;-73
2022/03/08 13:32:46;;;;;;;15.32;7.00;;;;;;;;;;4967333;28;20114;-73
2022/03/08 13:35:12;;;;;;;8.77;3.55;;;;;;;;;;4964241;28;20849;-72
2022/03/08 13:37:45;;;;;;;7.18;3.92;;;;;;;;;;4957815;28;20084;-74
2022/03/08 13:40:23;;;;;;;7.25;4.93;;;;;;;;;;4961964;28;20081;-73
2022/03/08 13:42:50;;;;;;;17.45;6.40;;;;;;;;;;4966472;28;20076;-76
2022/03/08 13:45:16;;;;;;;14.05;5.97;;;;;;;;;;4950746;28;20430;-74
2022/03/08 13:47:42;;;;;;;11.98;4.82;;;;;;;;;;4964187;28;20106;-73
2022/03/08 13:50:08;;;;;;;14.60;5.85;;;;;;;;;;4964274;28;20509;-72
2022/03/08 13:52:34;;;;;;;7.38;4.35;;;;;;;;;;4966420;28;20039;-72
2022/03/08 13:55:00;;;;;;;8.35;6.45;;;;;;;;;;4965284;28;20062;-74
2022/03/08 13:57:26;;;;;;;13.65;5.10;;;;;;;;;;4964805;28;20046;-73
2022/03/08 13:59:53;;;;;;;6.20;4.05;;;;;;;;;;4962069;28;20934;-73
2022/03/08 14:02:20;;;;;;;10.77;5.68;;;;;;;;;;4966267;28;20031;-72
2022/03/08 14:04:47;;;;;;;14.20;4.72;;;;;;;;;;4967002;28;20035;-73
2022/03/08 14:07:20;;;;;;;6.53;4.10;;;;;;;;;;4964258;28;20715;-72
2022/03/08 14:09:56;;;;;;;10.63;5.13;;;;;;;;;;4962719;28;20516;-72
2022/03/08 14:12:22;;;;;;;8.48;3.83;;;;;;;;;;4965195;28;20027;-72
2022/03/08 14:15:01;;;;;;;6.65;4.38;;;;;;;;;;4948166;28;20057;-73
2022/03/08 14:17:30;;;;;;;8.85;4.80;;;;;;;;;;4963128;28;20031;-72
2022/03/08 14:19:56;;;;;;;11.27;4.03;;;;;;;;;;4946999;28;20377;-71
2022/03/08 14:22:22;;;;;;;12.13;5.90;;;;;;;;;;4964265;28;20118;-71
2022/03/08 14:24:59;;;;;;;11.77;5.72;;;;;;;;;;4965589;28;20057;-72
2022/03/08 14:27:25;;;;;;;17.42;6.18;;;;;;;;;;4962830;28;20044;-73
2022/03/08 14:30:01;;;;;;;8.00;4.35;;;;;;;;;;4944864;28;20027;-72
2022/03/08 14:32:31;;;;;;;12.27;5.47;;;;;;;;;;4965535;28;20030;-72
2022/03/08 14:35:08;;;;;;;9.43;4.50;;;;;;;;;;4967101;28;20744;-72
2022/03/08 14:37:34;;;;;;;12.80;5.03;;;;;;;;;;4962276;28;20035;-72
2022/03/08 14:40:00;;;;;;;8.60;3.95;;;;;;;;;;4960598;28;20055;-71
2022/03/08 14:42:34;;;;;;;11.65;4.70;;;;;;;;;;4965900;28;20034;-71
2022/03/08 14:45:00;;;;;;;10.43;4.63;;;;;;;;;;4948480;28;20041;-72